sensor_id;sensor_type;location;lat;lon;timestamp;P1;durP1;ratioP1;P2;durP2;ratioP2
3189;SDS011;1606;51.946;10.558;2022-09-17T00:01:19;7.50;;;0.90;;
3189;SDS011;1606;51.946;10.558;2022-09-17T00:03:49;5.77;;;0.80;;
3189;SDS011;1606;51.946;10.558;2022-09-17T00:06:18;6.17;;;0.80;;
3189;SDS011;1606;51.946;10.558;2022-09-17T00:08:46;5.30;;;0.80;;
3189;SDS011;1606;51.946;10.558;2022-09-17T00:11:16;7.17;;;0.90;;
3189;SDS011;1606;51.946;10.558;2022-09-17T00:13:47;5.10;;;0.70;;
3189;SDS011;1606;51.946;10.558;2022-09-17T00:16:21;7.40;;;1.20;;
3189;SDS011;1606;51.946;10.558;2022-09-17T00:18:51;5.73;;;0.80;;
3189;SDS011;1606;51.946;10.558;2022-09-17T00:21:19;6.67;;;0.90;;
3189;SDS011;1606;51.946;10.558;2022-09-17T00:23:47;5.40;;;1.00;;
3189;SDS011;1606;51.946;10.558;2022-09-17T00:26:20;6.17;;;1.10;;
3189;SDS011;1606;51.946;10.558;2022-09-17T00:28:48;6.00;;;1.10;;
3189;SDS011;1606;51.946;10.558;2022-09-17T00:31:17;6.77;;;1.23;;
3189;SDS011;1606;51.946;10.558;2022-09-17T00:33:46;8.73;;;1.20;;
3189;SDS011;1606;51.946;10.558;2022-09-17T00:36:14;6.30;;;1.10;;
3189;SDS011;1606;51.946;10.558;2022-09-17T00:38:42;6.63;;;1.30;;
3189;SDS011;1606;51.946;10.558;2022-09-17T00:41:09;6.47;;;1.10;;
3189;SDS011;1606;51.946;10.558;2022-09-17T00:43:41;7.17;;;2.47;;
3189;SDS011;1606;51.946;10.558;2022-09-17T00:46:16;6.27;;;1.00;;
3189;SDS011;1606;51.946;10.558;2022-09-17T00:48:50;8.50;;;1.20;;
3189;SDS011;1606;51.946;10.558;2022-09-17T00:51:24;8.90;;;1.00;;
3189;SDS011;1606;51.946;10.558;2022-09-17T00:53:54;5.90;;;0.87;;
3189;SDS011;1606;51.946;10.558;2022-09-17T00:56:23;5.43;;;0.90;;
3189;SDS011;1606;51.946;10.558;2022-09-17T00:58:55;5.93;;;1.10;;
3189;SDS011;1606;51.946;10.558;2022-09-17T01:01:23;6.57;;;0.80;;
3189;SDS011;1606;51.946;10.558;2022-09-17T01:03:51;8.57;;;1.40;;
3189;SDS011;1606;51.946;10.558;2022-09-17T01:06:20;6.20;;;1.00;;
3189;SDS011;1606;51.946;10.558;2022-09-17T01:08:58;6.23;;;0.80;;
3189;SDS011;1606;51.946;10.558;2022-09-17T01:11:53;5.80;;;0.90;;
3189;SDS011;1606;51.946;10.558;2022-09-17T01:14:37;5.47;;;0.80;;
3189;SDS011;1606;51.946;10.558;2022-09-17T01:17:19;7.00;;;0.80;;
3189;SDS011;1606;51.946;10.558;2022-09-17T01:20:06;5.40;;;0.80;;
3189;SDS011;1606;51.946;10.558;2022-09-17T01:23:04;6.63;;;0.80;;
3189;SDS011;1606;51.946;10.558;2022-09-17T01:25:49;5.47;;;0.83;;
3189;SDS011;1606;51.946;10.558;2022-09-17T01:28:32;5.40;;;0.70;;
3189;SDS011;1606;51.946;10.558;2022-09-17T01:31:15;8.30;;;0.80;;
3189;SDS011;1606;51.946;10.558;2022-09-17T01:33:52;7.63;;;1.20;;
3189;SDS011;1606;51.946;10.558;2022-09-17T01:36:32;6.40;;;1.37;;
3189;SDS011;1606;51.946;10.558;2022-09-17T01:39:29;5.90;;;1.00;;
3189;SDS011;1606;51.946;10.558;2022-09-17T01:42:13;6.63;;;1.43;;
3189;SDS011;1606;51.946;10.558;2022-09-17T01:44:46;8.27;;;1.40;;
3189;SDS011;1606;51.946;10.558;2022-09-17T01:47:21;9.60;;;1.50;;
3189;SDS011;1606;51.946;10.558;2022-09-17T01:49:54;9.30;;;1.47;;
3189;SDS011;1606;51.946;10.558;2022-09-17T01:52:26;7.90;;;1.60;;
3189;SDS011;1606;51.946;10.558;2022-09-17T01:55:01;9.33;;;2.10;;
3189;SDS011;1606;51.946;10.558;2022-09-17T01:57:34;10.70;;;1.60;;
3189;SDS011;1606;51.946;10.558;2022-09-17T02:00:07;9.67;;;2.07;;
3189;SDS011;1606;51.946;10.558;2022-09-17T02:02:38;11.97;;;2.20;;
3189;SDS011;1606;51.946;10.558;2022-09-17T02:05:11;14.00;;;2.80;;
3189;SDS011;1606;51.946;10.558;2022-09-17T02:07:44;15.70;;;4.63;;
3189;SDS011;1606;51.946;10.558;2022-09-17T02:10:17;13.43;;;2.43;;
3189;SDS011;1606;51.946;10.558;2022-09-17T02:12:49;12.67;;;2.60;;
3189;SDS011;1606;51.946;10.558;2022-09-17T02:15:23;11.40;;;2.80;;
3189;SDS011;1606;51.946;10.558;2022-09-17T02:17:56;9.13;;;3.13;;
3189;SDS011;1606;51.946;10.558;2022-09-17T02:20:29;13.73;;;2.63;;
3189;SDS011;1606;51.946;10.558;2022-09-17T02:23:05;17.83;;;3.03;;
3189;SDS011;1606;51.946;10.558;2022-09-17T02:25:39;16.00;;;3.27;;
3189;SDS011;1606;51.946;10.558;2022-09-17T02:28:13;15.13;;;2.40;;
3189;SDS011;1606;51.946;10.558;2022-09-17T02:30:45;11.80;;;3.00;;
3189;SDS011;1606;51.946;10.558;2022-09-17T02:33:14;13.43;;;3.03;;
3189;SDS011;1606;51.946;10.558;2022-09-17T02:35:42;11.53;;;2.43;;
3189;SDS011;1606;51.946;10.558;2022-09-17T02:38:12;23.40;;;3.60;;
3189;SDS011;1606;51.946;10.558;2022-09-17T02:40:47;13.43;;;2.90;;
3189;SDS011;1606;51.946;10.558;2022-09-17T02:43:22;13.00;;;2.80;;
3189;SDS011;1606;51.946;10.558;2022-09-17T02:45:58;12.30;;;4.33;;
3189;SDS011;1606;51.946;10.558;2022-09-17T02:48:49;14.63;;;2.40;;
3189;SDS011;1606;51.946;10.558;2022-09-17T02:51:43;14.30;;;4.13;;
3189;SDS011;1606;51.946;10.558;2022-09-17T02:54:22;12.87;;;2.40;;
3189;SDS011;1606;51.946;10.558;2022-09-17T02:56:57;11.33;;;2.57;;
3189;SDS011;1606;51.946;10.558;2022-09-17T02:59:34;16.80;;;3.97;;
3189;SDS011;1606;51.946;10.558;2022-09-17T03:02:10;16.50;;;2.73;;
3189;SDS011;1606;51.946;10.558;2022-09-17T03:04:42;14.13;;;2.73;;
3189;SDS011;1606;51.946;10.558;2022-09-17T03:07:12;15.57;;;2.83;;
3189;SDS011;1606;51.946;10.558;2022-09-17T03:09:40;10.57;;;2.10;;
3189;SDS011;1606;51.946;10.558;2022-09-17T03:12:09;14.57;;;2.80;;
3189;SDS011;1606;51.946;10.558;2022-09-17T03:14:37;11.20;;;2.20;;
3189;SDS011;1606;51.946;10.558;2022-09-17T03:17:04;13.37;;;2.50;;
3189;SDS011;1606;51.946;10.558;2022-09-17T03:19:32;10.00;;;2.30;;
3189;SDS011;1606;51.946;10.558;2022-09-17T03:22:01;15.23;;;2.80;;
3189;SDS011;1606;51.946;10.558;2022-09-17T03:24:29;13.27;;;2.60;;
3189;SDS011;1606;51.946;10.558;2022-09-17T03:26:57;12.47;;;2.47;;
3189;SDS011;1606;51.946;10.558;2022-09-17T03:29:24;11.40;;;2.77;;
3189;SDS011;1606;51.946;10.558;2022-09-17T03:31:52;16.07;;;2.60;;
3189;SDS011;1606;51.946;10.558;2022-09-17T03:34:20;15.43;;;2.55;;
3189;SDS011;1606;51.946;10.558;2022-09-17T03:36:48;13.93;;;2.70;;
3189;SDS011;1606;51.946;10.558;2022-09-17T03:39:17;15.80;;;3.00;;
3189;SDS011;1606;51.946;10.558;2022-09-17T03:41:45;19.33;;;2.70;;
3189;SDS011;1606;51.946;10.558;2022-09-17T03:44:13;16.87;;;2.70;;
3189;SDS011;1606;51.946;10.558;2022-09-17T03:46:43;13.93;;;2.63;;
3189;SDS011;1606;51.946;10.558;2022-09-17T03:49:11;12.63;;;2.37;;
3189;SDS011;1606;51.946;10.558;2022-09-17T03:51:39;9.17;;;2.40;;
3189;SDS011;1606;51.946;10.558;2022-09-17T03:54:07;10.47;;;2.20;;
3189;SDS011;1606;51.946;10.558;2022-09-17T03:56:36;14.30;;;2.70;;
3189;SDS011;1606;51.946;10.558;2022-09-17T03:59:04;13.33;;;2.90;;
3189;SDS011;1606;51.946;10.558;2022-09-17T04:01:32;10.23;;;2.00;;
3189;SDS011;1606;51.946;10.558;2022-09-17T04:04:00;12.33;;;2.87;;
3189;SDS011;1606;51.946;10.558;2022-09-17T04:06:28;16.20;;;2.60;;
3189;SDS011;1606;51.946;10.558;2022-09-17T04:08:56;15.67;;;2.20;;
3189;SDS011;1606;51.946;10.558;2022-09-17T04:11:26;10.27;;;2.70;;
3189;SDS011;1606;51.946;10.558;2022-09-17T04:13:55;10.30;;;2.70;;
3189;SDS011;1606;51.946;10.558;2022-09-17T04:16:22;16.47;;;3.40;;
3189;SDS011;1606;51.946;10.558;2022-09-17T04:18:50;16.03;;;3.20;;
3189;SDS011;1606;51.946;10.558;2022-09-17T04:21:18;18.20;;;2.70;;
3189;SDS011;1606;51.946;10.558;2022-09-17T04:23:46;20.47;;;3.90;;
3189;SDS011;1606;51.946;10.558;2022-09-17T04:26:13;13.67;;;2.63;;
3189;SDS011;1606;51.946;10.558;2022-09-17T04:28:41;22.00;;;3.50;;
3189;SDS011;1606;51.946;10.558;2022-09-17T04:31:10;17.57;;;4.10;;
3189;SDS011;1606;51.946;10.558;2022-09-17T04:33:38;11.07;;;2.87;;
3189;SDS011;1606;51.946;10.558;2022-09-17T04:36:06;16.40;;;2.83;;
3189;SDS011;1606;51.946;10.558;2022-09-17T04:38:33;19.53;;;2.93;;
3189;SDS011;1606;51.946;10.558;2022-09-17T04:41:01;13.60;;;2.90;;
3189;SDS011;1606;51.946;10.558;2022-09-17T04:43:29;12.00;;;3.07;;
3189;SDS011;1606;51.946;10.558;2022-09-17T04:45:56;9.53;;;2.77;;
3189;SDS011;1606;51.946;10.558;2022-09-17T04:48:25;12.00;;;2.30;;
3189;SDS011;1606;51.946;10.558;2022-09-17T04:50:53;15.77;;;3.07;;
3189;SDS011;1606;51.946;10.558;2022-09-17T04:53:21;15.00;;;2.50;;
3189;SDS011;1606;51.946;10.558;2022-09-17T04:55:48;18.90;;;3.60;;
3189;SDS011;1606;51.946;10.558;2022-09-17T04:58:16;19.47;;;3.27;;
3189;SDS011;1606;51.946;10.558;2022-09-17T05:00:44;11.10;;;2.93;;
3189;SDS011;1606;51.946;10.558;2022-09-17T05:03:12;16.37;;;2.73;;
3189;SDS011;1606;51.946;10.558;2022-09-17T05:05:41;13.67;;;2.80;;
3189;SDS011;1606;51.946;10.558;2022-09-17T05:08:08;15.90;;;3.03;;
3189;SDS011;1606;51.946;10.558;2022-09-17T05:10:36;20.50;;;3.10;;
3189;SDS011;1606;51.946;10.558;2022-09-17T05:13:04;17.17;;;3.17;;
3189;SDS011;1606;51.946;10.558;2022-09-17T05:15:32;14.40;;;3.03;;
3189;SDS011;1606;51.946;10.558;2022-09-17T05:18:00;15.10;;;3.20;;
3189;SDS011;1606;51.946;10.558;2022-09-17T05:20:28;12.20;;;2.70;;
3189;SDS011;1606;51.946;10.558;2022-09-17T05:22:57;18.57;;;4.00;;
3189;SDS011;1606;51.946;10.558;2022-09-17T05:25:25;19.50;;;2.97;;
3189;SDS011;1606;51.946;10.558;2022-09-17T05:27:53;11.30;;;2.77;;
3189;SDS011;1606;51.946;10.558;2022-09-17T05:30:21;17.10;;;3.93;;
3189;SDS011;1606;51.946;10.558;2022-09-17T05:32:56;15.90;;;2.63;;
3189;SDS011;1606;51.946;10.558;2022-09-17T05:35:25;14.53;;;3.13;;
3189;SDS011;1606;51.946;10.558;2022-09-17T05:37:55;10.27;;;2.30;;
3189;SDS011;1606;51.946;10.558;2022-09-17T05:40:26;12.03;;;3.23;;
3189;SDS011;1606;51.946;10.558;2022-09-17T05:42:56;14.00;;;2.57;;
3189;SDS011;1606;51.946;10.558;2022-09-17T05:45:25;17.33;;;3.33;;
3189;SDS011;1606;51.946;10.558;2022-09-17T05:47:53;13.97;;;4.00;;
3189;SDS011;1606;51.946;10.558;2022-09-17T05:50:22;15.10;;;2.63;;
3189;SDS011;1606;51.946;10.558;2022-09-17T05:52:50;12.43;;;3.40;;
3189;SDS011;1606;51.946;10.558;2022-09-17T05:55:20;12.40;;;2.53;;
3189;SDS011;1606;51.946;10.558;2022-09-17T05:57:50;15.00;;;2.83;;
3189;SDS011;1606;51.946;10.558;2022-09-17T06:00:17;13.10;;;2.93;;
3189;SDS011;1606;51.946;10.558;2022-09-17T06:02:46;14.23;;;3.40;;
3189;SDS011;1606;51.946;10.558;2022-09-17T06:05:20;15.80;;;3.03;;
3189;SDS011;1606;51.946;10.558;2022-09-17T06:07:47;18.93;;;3.17;;
3189;SDS011;1606;51.946;10.558;2022-09-17T06:10:15;16.57;;;3.07;;
3189;SDS011;1606;51.946;10.558;2022-09-17T06:12:44;22.53;;;2.70;;
3189;SDS011;1606;51.946;10.558;2022-09-17T06:15:12;15.63;;;2.63;;
3189;SDS011;1606;51.946;10.558;2022-09-17T06:17:40;14.50;;;2.50;;
3189;SDS011;1606;51.946;10.558;2022-09-17T06:20:08;18.93;;;3.20;;
3189;SDS011;1606;51.946;10.558;2022-09-17T06:22:36;13.33;;;2.80;;
3189;SDS011;1606;51.946;10.558;2022-09-17T06:25:04;16.30;;;4.63;;
3189;SDS011;1606;51.946;10.558;2022-09-17T06:27:33;16.77;;;2.53;;
3189;SDS011;1606;51.946;10.558;2022-09-17T06:30:03;12.73;;;2.27;;
3189;SDS011;1606;51.946;10.558;2022-09-17T06:32:32;10.60;;;2.20;;
3189;SDS011;1606;51.946;10.558;2022-09-17T06:35:00;16.00;;;3.37;;
3189;SDS011;1606;51.946;10.558;2022-09-17T06:37:28;18.13;;;2.37;;
3189;SDS011;1606;51.946;10.558;2022-09-17T06:39:57;14.03;;;2.63;;
3189;SDS011;1606;51.946;10.558;2022-09-17T06:42:25;12.33;;;2.60;;
3189;SDS011;1606;51.946;10.558;2022-09-17T06:44:53;15.20;;;2.37;;
3189;SDS011;1606;51.946;10.558;2022-09-17T06:47:27;14.30;;;2.80;;
3189;SDS011;1606;51.946;10.558;2022-09-17T06:49:55;18.63;;;2.87;;
3189;SDS011;1606;51.946;10.558;2022-09-17T06:52:24;21.33;;;2.97;;
3189;SDS011;1606;51.946;10.558;2022-09-17T06:54:52;18.53;;;4.13;;
3189;SDS011;1606;51.946;10.558;2022-09-17T06:57:20;15.80;;;2.40;;
3189;SDS011;1606;51.946;10.558;2022-09-17T06:59:48;23.50;;;4.17;;
3189;SDS011;1606;51.946;10.558;2022-09-17T07:02:17;13.87;;;3.40;;
3189;SDS011;1606;51.946;10.558;2022-09-17T07:04:46;16.73;;;2.47;;
3189;SDS011;1606;51.946;10.558;2022-09-17T07:07:13;10.43;;;2.53;;
3189;SDS011;1606;51.946;10.558;2022-09-17T07:09:41;14.37;;;2.90;;
3189;SDS011;1606;51.946;10.558;2022-09-17T07:12:09;16.63;;;2.83;;
3189;SDS011;1606;51.946;10.558;2022-09-17T07:14:36;12.30;;;2.47;;
3189;SDS011;1606;51.946;10.558;2022-09-17T07:17:04;13.90;;;3.10;;
3189;SDS011;1606;51.946;10.558;2022-09-17T07:19:32;20.03;;;2.73;;
3189;SDS011;1606;51.946;10.558;2022-09-17T07:22:01;13.27;;;3.17;;
3189;SDS011;1606;51.946;10.558;2022-09-17T07:24:29;19.50;;;3.40;;
3189;SDS011;1606;51.946;10.558;2022-09-17T07:26:58;15.30;;;2.50;;
3189;SDS011;1606;51.946;10.558;2022-09-17T07:29:26;18.03;;;2.80;;
3189;SDS011;1606;51.946;10.558;2022-09-17T07:31:54;17.93;;;2.50;;
3189;SDS011;1606;51.946;10.558;2022-09-17T07:34:25;14.57;;;2.40;;
3189;SDS011;1606;51.946;10.558;2022-09-17T07:36:54;19.87;;;3.70;;
3189;SDS011;1606;51.946;10.558;2022-09-17T07:39:23;12.40;;;2.63;;
3189;SDS011;1606;51.946;10.558;2022-09-17T07:41:50;17.33;;;3.47;;
3189;SDS011;1606;51.946;10.558;2022-09-17T07:44:18;14.80;;;3.40;;
3189;SDS011;1606;51.946;10.558;2022-09-17T07:46:47;13.00;;;2.40;;
3189;SDS011;1606;51.946;10.558;2022-09-17T07:49:15;16.00;;;2.63;;
3189;SDS011;1606;51.946;10.558;2022-09-17T07:51:43;18.27;;;2.80;;
3189;SDS011;1606;51.946;10.558;2022-09-17T07:54:10;20.97;;;2.83;;
3189;SDS011;1606;51.946;10.558;2022-09-17T07:56:39;13.00;;;2.90;;
3189;SDS011;1606;51.946;10.558;2022-09-17T07:59:07;18.03;;;2.87;;
3189;SDS011;1606;51.946;10.558;2022-09-17T08:01:35;10.43;;;2.50;;
3189;SDS011;1606;51.946;10.558;2022-09-17T08:04:03;12.27;;;2.93;;
3189;SDS011;1606;51.946;10.558;2022-09-17T08:06:34;14.70;;;2.27;;
3189;SDS011;1606;51.946;10.558;2022-09-17T08:09:03;20.47;;;2.93;;
3189;SDS011;1606;51.946;10.558;2022-09-17T08:11:31;11.53;;;2.33;;
3189;SDS011;1606;51.946;10.558;2022-09-17T08:14:21;14.00;;;2.93;;
3189;SDS011;1606;51.946;10.558;2022-09-17T08:16:54;10.90;;;2.50;;
3189;SDS011;1606;51.946;10.558;2022-09-17T08:19:22;20.10;;;3.40;;
3189;SDS011;1606;51.946;10.558;2022-09-17T08:21:50;11.87;;;2.33;;
3189;SDS011;1606;51.946;10.558;2022-09-17T08:24:22;16.13;;;3.28;;
3189;SDS011;1606;51.946;10.558;2022-09-17T08:26:49;14.57;;;2.47;;
3189;SDS011;1606;51.946;10.558;2022-09-17T08:29:17;14.80;;;3.80;;
3189;SDS011;1606;51.946;10.558;2022-09-17T08:31:47;16.43;;;2.70;;
3189;SDS011;1606;51.946;10.558;2022-09-17T08:34:15;16.73;;;3.87;;
3189;SDS011;1606;51.946;10.558;2022-09-17T08:36:42;12.20;;;2.73;;
3189;SDS011;1606;51.946;10.558;2022-09-17T08:39:10;13.87;;;2.93;;
3189;SDS011;1606;51.946;10.558;2022-09-17T08:41:41;22.23;;;3.00;;
3189;SDS011;1606;51.946;10.558;2022-09-17T08:44:21;13.60;;;3.43;;
3189;SDS011;1606;51.946;10.558;2022-09-17T08:46:59;17.97;;;2.60;;
3189;SDS011;1606;51.946;10.558;2022-09-17T08:49:32;13.27;;;2.70;;
3189;SDS011;1606;51.946;10.558;2022-09-17T08:55:04;13.93;;;2.90;;
3189;SDS011;1606;51.946;10.558;2022-09-17T08:57:42;10.27;;;2.93;;
3189;SDS011;1606;51.946;10.558;2022-09-17T09:00:16;17.20;;;2.77;;
3189;SDS011;1606;51.946;10.558;2022-09-17T09:02:53;11.47;;;2.30;;
3189;SDS011;1606;51.946;10.558;2022-09-17T09:05:30;17.00;;;2.77;;
3189;SDS011;1606;51.946;10.558;2022-09-17T09:08:10;14.23;;;2.57;;
3189;SDS011;1606;51.946;10.558;2022-09-17T09:10:44;13.23;;;2.30;;
3189;SDS011;1606;51.946;10.558;2022-09-17T09:13:17;12.43;;;2.20;;
3189;SDS011;1606;51.946;10.558;2022-09-17T09:15:48;13.60;;;2.60;;
3189;SDS011;1606;51.946;10.558;2022-09-17T09:18:22;13.00;;;2.50;;
3189;SDS011;1606;51.946;10.558;2022-09-17T09:20:52;15.10;;;2.17;;
3189;SDS011;1606;51.946;10.558;2022-09-17T09:23:26;13.47;;;2.87;;
3189;SDS011;1606;51.946;10.558;2022-09-17T09:26:02;12.40;;;2.57;;
3189;SDS011;1606;51.946;10.558;2022-09-17T09:28:44;15.13;;;2.63;;
3189;SDS011;1606;51.946;10.558;2022-09-17T09:31:27;13.93;;;3.10;;
3189;SDS011;1606;51.946;10.558;2022-09-17T09:34:07;9.93;;;2.13;;
3189;SDS011;1606;51.946;10.558;2022-09-17T09:36:35;14.03;;;2.90;;
3189;SDS011;1606;51.946;10.558;2022-09-17T09:39:06;9.47;;;2.23;;
3189;SDS011;1606;51.946;10.558;2022-09-17T09:41:42;19.23;;;2.90;;
3189;SDS011;1606;51.946;10.558;2022-09-17T09:44:15;12.60;;;2.40;;
3189;SDS011;1606;51.946;10.558;2022-09-17T09:49:38;13.53;;;3.10;;
3189;SDS011;1606;51.946;10.558;2022-09-17T09:52:18;15.17;;;3.47;;
3189;SDS011;1606;51.946;10.558;2022-09-17T09:54:56;15.47;;;2.53;;
3189;SDS011;1606;51.946;10.558;2022-09-17T09:57:35;14.80;;;2.10;;
3189;SDS011;1606;51.946;10.558;2022-09-17T10:03:02;10.03;;;1.43;;
3189;SDS011;1606;51.946;10.558;2022-09-17T10:05:38;14.33;;;2.37;;
3189;SDS011;1606;51.946;10.558;2022-09-17T10:08:10;11.27;;;2.60;;
3189;SDS011;1606;51.946;10.558;2022-09-17T10:10:51;12.73;;;3.17;;
3189;SDS011;1606;51.946;10.558;2022-09-17T10:13:20;9.70;;;2.00;;
3189;SDS011;1606;51.946;10.558;2022-09-17T10:15:49;11.50;;;2.00;;
3189;SDS011;1606;51.946;10.558;2022-09-17T10:18:17;11.33;;;2.40;;
3189;SDS011;1606;51.946;10.558;2022-09-17T10:20:51;11.73;;;2.50;;
3189;SDS011;1606;51.946;10.558;2022-09-17T10:23:24;10.50;;;1.93;;
3189;SDS011;1606;51.946;10.558;2022-09-17T10:25:54;11.07;;;2.63;;
3189;SDS011;1606;51.946;10.558;2022-09-17T10:28:25;12.07;;;2.90;;
3189;SDS011;1606;51.946;10.558;2022-09-17T10:30:58;11.00;;;2.77;;
3189;SDS011;1606;51.946;10.558;2022-09-17T10:33:33;15.43;;;1.77;;
3189;SDS011;1606;51.946;10.558;2022-09-17T10:36:06;10.50;;;2.60;;
3189;SDS011;1606;51.946;10.558;2022-09-17T10:38:36;13.87;;;2.33;;
3189;SDS011;1606;51.946;10.558;2022-09-17T10:41:12;10.40;;;2.13;;
3189;SDS011;1606;51.946;10.558;2022-09-17T10:43:41;13.73;;;2.00;;
3189;SDS011;1606;51.946;10.558;2022-09-17T10:46:11;7.17;;;1.77;;
3189;SDS011;1606;51.946;10.558;2022-09-17T10:48:43;13.27;;;2.70;;
3189;SDS011;1606;51.946;10.558;2022-09-17T10:51:20;14.80;;;2.57;;
3189;SDS011;1606;51.946;10.558;2022-09-17T10:53:58;13.53;;;2.17;;
3189;SDS011;1606;51.946;10.558;2022-09-17T10:56:45;10.20;;;2.15;;
3189;SDS011;1606;51.946;10.558;2022-09-17T10:59:38;9.17;;;1.73;;
3189;SDS011;1606;51.946;10.558;2022-09-17T11:02:26;18.17;;;2.20;;
3189;SDS011;1606;51.946;10.558;2022-09-17T11:05:19;11.20;;;2.23;;
3189;SDS011;1606;51.946;10.558;2022-09-17T11:08:02;9.63;;;1.90;;
3189;SDS011;1606;51.946;10.558;2022-09-17T11:10:39;11.27;;;2.00;;
3189;SDS011;1606;51.946;10.558;2022-09-17T11:13:14;12.97;;;4.33;;
3189;SDS011;1606;51.946;10.558;2022-09-17T11:16:01;9.93;;;1.93;;
3189;SDS011;1606;51.946;10.558;2022-09-17T11:18:38;13.70;;;2.30;;
3189;SDS011;1606;51.946;10.558;2022-09-17T11:21:14;10.17;;;1.87;;
3189;SDS011;1606;51.946;10.558;2022-09-17T11:24:04;11.17;;;2.30;;
3189;SDS011;1606;51.946;10.558;2022-09-17T11:26:51;9.27;;;2.07;;
3189;SDS011;1606;51.946;10.558;2022-09-17T11:29:30;11.50;;;1.93;;
3189;SDS011;1606;51.946;10.558;2022-09-17T11:32:13;9.73;;;1.73;;
3189;SDS011;1606;51.946;10.558;2022-09-17T11:34:57;11.50;;;2.20;;
3189;SDS011;1606;51.946;10.558;2022-09-17T11:37:30;11.03;;;1.60;;
3189;SDS011;1606;51.946;10.558;2022-09-17T11:40:03;8.53;;;1.50;;
3189;SDS011;1606;51.946;10.558;2022-09-17T11:42:41;9.10;;;2.20;;
3189;SDS011;1606;51.946;10.558;2022-09-17T11:45:14;11.20;;;2.40;;
3189;SDS011;1606;51.946;10.558;2022-09-17T11:47:46;8.43;;;1.83;;
3189;SDS011;1606;51.946;10.558;2022-09-17T11:50:20;10.13;;;1.60;;
3189;SDS011;1606;51.946;10.558;2022-09-17T11:52:57;8.70;;;1.80;;
3189;SDS011;1606;51.946;10.558;2022-09-17T11:55:33;12.53;;;1.87;;
3189;SDS011;1606;51.946;10.558;2022-09-17T11:58:09;10.83;;;1.80;;
3189;SDS011;1606;51.946;10.558;2022-09-17T12:00:42;6.80;;;1.30;;
3189;SDS011;1606;51.946;10.558;2022-09-17T12:03:16;10.90;;;1.77;;
3189;SDS011;1606;51.946;10.558;2022-09-17T12:05:50;8.00;;;2.10;;
3189;SDS011;1606;51.946;10.558;2022-09-17T12:08:21;8.50;;;2.47;;
3189;SDS011;1606;51.946;10.558;2022-09-17T12:10:54;8.57;;;2.17;;
3189;SDS011;1606;51.946;10.558;2022-09-17T12:13:29;8.93;;;1.80;;
3189;SDS011;1606;51.946;10.558;2022-09-17T12:16:05;11.20;;;1.80;;
3189;SDS011;1606;51.946;10.558;2022-09-17T12:18:45;10.70;;;1.73;;
3189;SDS011;1606;51.946;10.558;2022-09-17T12:21:20;6.73;;;1.60;;
3189;SDS011;1606;51.946;10.558;2022-09-17T12:23:55;7.47;;;1.73;;
3189;SDS011;1606;51.946;10.558;2022-09-17T12:26:31;7.80;;;1.80;;
3189;SDS011;1606;51.946;10.558;2022-09-17T12:29:10;9.23;;;1.93;;
3189;SDS011;1606;51.946;10.558;2022-09-17T12:31:49;7.80;;;1.53;;
3189;SDS011;1606;51.946;10.558;2022-09-17T12:34:26;7.60;;;1.73;;
3189;SDS011;1606;51.946;10.558;2022-09-17T12:37:04;9.70;;;1.60;;
3189;SDS011;1606;51.946;10.558;2022-09-17T12:39:50;7.33;;;1.50;;
3189;SDS011;1606;51.946;10.558;2022-09-17T12:42:41;9.70;;;1.57;;
3189;SDS011;1606;51.946;10.558;2022-09-17T12:45:34;8.50;;;1.20;;
3189;SDS011;1606;51.946;10.558;2022-09-17T12:51:38;6.23;;;1.53;;
3189;SDS011;1606;51.946;10.558;2022-09-17T12:54:22;9.00;;;1.57;;
3189;SDS011;1606;51.946;10.558;2022-09-17T12:57:13;9.23;;;2.53;;
3189;SDS011;1606;51.946;10.558;2022-09-17T12:59:50;8.40;;;1.67;;
3189;SDS011;1606;51.946;10.558;2022-09-17T13:02:31;9.33;;;1.67;;
3189;SDS011;1606;51.946;10.558;2022-09-17T13:05:09;11.03;;;2.20;;
3189;SDS011;1606;51.946;10.558;2022-09-17T13:08:14;9.67;;;1.63;;
3189;SDS011;1606;51.946;10.558;2022-09-17T13:13:59;8.60;;;2.17;;
3189;SDS011;1606;51.946;10.558;2022-09-17T13:16:36;8.60;;;1.50;;
3189;SDS011;1606;51.946;10.558;2022-09-17T13:19:16;8.27;;;1.60;;
3189;SDS011;1606;51.946;10.558;2022-09-17T13:21:52;6.30;;;1.50;;
3189;SDS011;1606;51.946;10.558;2022-09-17T13:24:26;7.20;;;1.90;;
3189;SDS011;1606;51.946;10.558;2022-09-17T13:26:56;8.90;;;1.70;;
3189;SDS011;1606;51.946;10.558;2022-09-17T13:32:44;9.67;;;1.83;;
3189;SDS011;1606;51.946;10.558;2022-09-17T13:38:14;10.77;;;1.97;;
3189;SDS011;1606;51.946;10.558;2022-09-17T13:40:49;5.20;;;1.20;;
3189;SDS011;1606;51.946;10.558;2022-09-17T13:43:18;5.60;;;1.10;;
3189;SDS011;1606;51.946;10.558;2022-09-17T13:46:10;9.50;;;1.30;;
3189;SDS011;1606;51.946;10.558;2022-09-17T13:48:48;8.90;;;1.40;;
3189;SDS011;1606;51.946;10.558;2022-09-17T13:54:20;7.93;;;2.40;;
3189;SDS011;1606;51.946;10.558;2022-09-17T13:56:50;12.03;;;2.13;;
3189;SDS011;1606;51.946;10.558;2022-09-17T13:59:33;7.37;;;1.40;;
3189;SDS011;1606;51.946;10.558;2022-09-17T14:02:25;6.90;;;1.20;;
3189;SDS011;1606;51.946;10.558;2022-09-17T14:08:09;7.40;;;1.13;;
3189;SDS011;1606;51.946;10.558;2022-09-17T14:10:54;6.60;;;0.93;;
3189;SDS011;1606;51.946;10.558;2022-09-17T14:13:27;10.27;;;1.30;;
3189;SDS011;1606;51.946;10.558;2022-09-17T14:16:30;7.23;;;1.27;;
3189;SDS011;1606;51.946;10.558;2022-09-17T14:19:16;9.13;;;1.47;;
3189;SDS011;1606;51.946;10.558;2022-09-17T14:21:55;11.80;;;1.67;;
3189;SDS011;1606;51.946;10.558;2022-09-17T14:24:26;7.03;;;1.83;;
3189;SDS011;1606;51.946;10.558;2022-09-17T14:30:11;7.80;;;1.23;;
3189;SDS011;1606;51.946;10.558;2022-09-17T14:32:43;8.13;;;1.33;;
3189;SDS011;1606;51.946;10.558;2022-09-17T14:35:18;7.67;;;1.50;;
3189;SDS011;1606;51.946;10.558;2022-09-17T14:37:54;8.98;;;1.58;;
3189;SDS011;1606;51.946;10.558;2022-09-17T14:40:24;10.67;;;2.03;;
3189;SDS011;1606;51.946;10.558;2022-09-17T14:42:54;7.57;;;1.07;;
3189;SDS011;1606;51.946;10.558;2022-09-17T14:45:24;6.73;;;1.27;;
3189;SDS011;1606;51.946;10.558;2022-09-17T14:54:05;9.03;;;1.27;;
3189;SDS011;1606;51.946;10.558;2022-09-17T14:56:39;10.80;;;1.87;;
3189;SDS011;1606;51.946;10.558;2022-09-17T14:59:16;7.27;;;1.17;;
3189;SDS011;1606;51.946;10.558;2022-09-17T15:01:48;7.17;;;1.90;;
3189;SDS011;1606;51.946;10.558;2022-09-17T15:04:19;8.40;;;1.87;;
3189;SDS011;1606;51.946;10.558;2022-09-17T15:06:50;11.37;;;1.50;;
3189;SDS011;1606;51.946;10.558;2022-09-17T15:09:21;10.23;;;1.63;;
3189;SDS011;1606;51.946;10.558;2022-09-17T15:11:50;7.83;;;1.33;;
3189;SDS011;1606;51.946;10.558;2022-09-17T15:14:20;7.57;;;1.40;;
3189;SDS011;1606;51.946;10.558;2022-09-17T15:16:53;8.20;;;2.00;;
3189;SDS011;1606;51.946;10.558;2022-09-17T15:19:24;5.97;;;1.33;;
3189;SDS011;1606;51.946;10.558;2022-09-17T15:21:57;8.93;;;1.20;;
3189;SDS011;1606;51.946;10.558;2022-09-17T15:24:33;6.97;;;1.40;;
3189;SDS011;1606;51.946;10.558;2022-09-17T15:27:08;8.37;;;1.77;;
3189;SDS011;1606;51.946;10.558;2022-09-17T15:29:40;6.73;;;1.10;;
3189;SDS011;1606;51.946;10.558;2022-09-17T15:32:11;6.63;;;1.30;;
3189;SDS011;1606;51.946;10.558;2022-09-17T15:34:40;10.30;;;2.20;;
3189;SDS011;1606;51.946;10.558;2022-09-17T15:37:16;9.30;;;1.80;;
3189;SDS011;1606;51.946;10.558;2022-09-17T15:39:46;8.17;;;1.60;;
3189;SDS011;1606;51.946;10.558;2022-09-17T15:42:17;9.40;;;1.60;;
3189;SDS011;1606;51.946;10.558;2022-09-17T15:44:47;12.70;;;2.30;;
3189;SDS011;1606;51.946;10.558;2022-09-17T15:50:19;7.37;;;1.10;;
3189;SDS011;1606;51.946;10.558;2022-09-17T15:52:49;6.30;;;1.27;;
3189;SDS011;1606;51.946;10.558;2022-09-17T15:55:31;11.33;;;1.80;;
3189;SDS011;1606;51.946;10.558;2022-09-17T15:58:04;9.20;;;1.53;;
3189;SDS011;1606;51.946;10.558;2022-09-17T16:00:46;7.20;;;1.60;;
3189;SDS011;1606;51.946;10.558;2022-09-17T16:06:36;7.67;;;1.20;;
3189;SDS011;1606;51.946;10.558;2022-09-17T16:09:34;13.77;;;2.63;;
3189;SDS011;1606;51.946;10.558;2022-09-17T16:12:02;8.57;;;1.50;;